createdAt,value
2023-03-28T00:01:09.220Z,98911.59
2023-03-28T00:03:42.712Z,98918.28
2023-03-28T00:06:13.960Z,98917.50
2023-03-28T00:08:42.082Z,98923.31
2023-03-28T00:11:12.891Z,98924.13
2023-03-28T00:13:40.454Z,98924.06
2023-03-28T00:16:12.982Z,98930.78
2023-03-28T00:18:42.890Z,98928.88
2023-03-28T00:21:23.831Z,98931.72
2023-03-28T00:23:56.492Z,98937.53
2023-03-28T00:26:26.759Z,98928.81
2023-03-28T00:28:56.861Z,98935.53
2023-03-28T00:31:26.573Z,98936.19
2023-03-28T00:33:55.005Z,98944.69
2023-03-28T00:36:26.822Z,98949.66
2023-03-28T00:38:54.754Z,98948.72
2023-03-28T00:41:23.865Z,98958.97
2023-03-28T00:43:54.748Z,98953.66
2023-03-28T00:46:35.596Z,98959.63
2023-03-28T00:49:10.025Z,98968.81
2023-03-28T00:51:44.173Z,98966.13
2023-03-28T00:54:17.397Z,98967.66
2023-03-28T00:56:49.230Z,98968.41
2023-03-28T00:59:20.242Z,98970.94
2023-03-28T01:01:49.173Z,98970.06
2023-03-28T01:04:22.276Z,98975.81
2023-03-28T01:06:57.305Z,98971.47
2023-03-28T01:09:25.148Z,98980.78
2023-03-28T01:11:56.979Z,98969.56
2023-03-28T01:14:29.164Z,98973.00
2023-03-28T01:16:59.188Z,98982.38
2023-03-28T01:19:59.205Z,98981.78
2023-03-28T01:22:33.046Z,98980.63
2023-03-28T01:25:31.496Z,98978.13
2023-03-28T01:28:07.961Z,98978.09
2023-03-28T01:30:43.684Z,98986.28
2023-03-28T01:34:15.113Z,98977.22
2023-03-28T01:36:57.585Z,98980.50
2023-03-28T01:39:53.238Z,98987.31
2023-03-28T01:42:44.182Z,98977.56
2023-03-28T01:45:40.515Z,98976.13
2023-03-28T01:48:36.075Z,98975.19
2023-03-28T01:51:24.733Z,98974.69
2023-03-28T01:53:56.334Z,98982.25
2023-03-28T01:56:42.432Z,98978.97
2023-03-28T01:59:23.173Z,98985.81
2023-03-28T02:02:27.575Z,98983.19
2023-03-28T02:05:04.625Z,98984.00
2023-03-28T02:07:38.589Z,98989.78
2023-03-28T02:10:14.087Z,98993.88
2023-03-28T02:13:05.558Z,98995.63
2023-03-28T02:16:01.934Z,99001.34
2023-03-28T02:18:53.132Z,99003.91
2023-03-28T02:21:32.111Z,99001.28
2023-03-28T02:24:26.138Z,99007.25
2023-03-28T02:27:12.365Z,99004.63
2023-03-28T02:29:50.383Z,99007.97
2023-03-28T02:32:34.197Z,99010.53
2023-03-28T02:35:05.455Z,99015.53
2023-03-28T02:38:02.123Z,99022.66
2023-03-28T02:40:55.339Z,99016.34
2023-03-28T02:43:41.900Z,99024.41
2023-03-28T02:46:21.034Z,99026.09
2023-03-28T02:49:12.367Z,99022.81
2023-03-28T02:52:04.182Z,99020.19
2023-03-28T02:54:45.906Z,99022.81
2023-03-28T02:57:46.422Z,99038.63
2023-03-28T03:00:18.841Z,99035.31
2023-03-28T03:02:50.613Z,99043.97
2023-03-28T03:05:23.317Z,99039.59
2023-03-28T03:07:51.643Z,99037.75
2023-03-28T03:10:19.332Z,99050.41
2023-03-28T03:12:48.612Z,99055.50
2023-03-28T03:15:19.294Z,99053.84
2023-03-28T03:17:58.918Z,99063.31
2023-03-28T03:20:33.713Z,99060.75
2023-03-28T03:23:03.787Z,99059.72
2023-03-28T03:25:35.146Z,99066.63
2023-03-28T03:28:38.249Z,99064.94
2023-03-28T03:31:07.336Z,99068.47
2023-03-28T03:34:10.443Z,99070.28
2023-03-28T03:36:43.332Z,99063.44
2023-03-28T03:39:11.124Z,99067.97
2023-03-28T03:41:38.995Z,99069.03
2023-03-28T03:44:07.338Z,99072.81
2023-03-28T03:46:34.966Z,99076.41
2023-03-28T03:49:03.056Z,99077.56
2023-03-28T03:51:30.738Z,99078.50
2023-03-28T03:53:58.515Z,99078.78
2023-03-28T03:56:35.098Z,99082.56
2023-03-28T03:59:02.738Z,99076.16
2023-03-28T04:01:32.623Z,99085.09
2023-03-28T04:04:32.544Z,99076.34
2023-03-28T04:07:16.253Z,99079.38
2023-03-28T04:09:45.816Z,99086.78
2023-03-28T04:12:14.670Z,99089.25
2023-03-28T04:15:00.538Z,99078.00
2023-03-28T04:17:37.915Z,99071.25
2023-03-28T04:20:13.913Z,99077.16
2023-03-28T04:23:02.074Z,99074.84
2023-03-28T04:25:32.042Z,99077.94
2023-03-28T04:28:11.449Z,99070.16
2023-03-28T04:30:47.545Z,99069.38
2023-03-28T04:33:45.454Z,99074.59
2023-03-28T04:36:18.886Z,99082.31
2023-03-28T04:39:02.444Z,99079.06
2023-03-28T04:41:56.632Z,99080.09
2023-03-28T04:44:47.228Z,99077.53
2023-03-28T04:47:15.335Z,99078.19
2023-03-28T04:49:42.833Z,99082.34
2023-03-28T04:52:11.243Z,99077.78
2023-03-28T04:54:39.314Z,99078.63
2023-03-28T04:57:11.789Z,99094.72
2023-03-28T04:59:44.535Z,99085.84
2023-03-28T05:02:20.318Z,99074.97
2023-03-28T05:05:06.957Z,99084.69
2023-03-28T05:07:35.245Z,99083.75
2023-03-28T05:10:12.866Z,99080.44
2023-03-28T05:12:42.066Z,99087.28
2023-03-28T05:15:10.542Z,99095.84
2023-03-28T05:17:53.081Z,99101.94
2023-03-28T05:20:30.184Z,99100.44
2023-03-28T05:22:58.368Z,99106.09
2023-03-28T05:25:26.136Z,99097.22
2023-03-28T05:27:56.040Z,99104.44
2023-03-28T05:30:24.879Z,99105.88
2023-03-28T05:32:55.474Z,99103.53
2023-03-28T05:35:23.197Z,99107.88
2023-03-28T05:37:51.662Z,99098.66
2023-03-28T05:40:20.337Z,99103.97
2023-03-28T05:42:47.856Z,99098.47
2023-03-28T05:45:17.454Z,99114.31
2023-03-28T05:47:45.025Z,99105.16
2023-03-28T05:50:14.190Z,99122.31
2023-03-28T05:52:41.650Z,99117.31
2023-03-28T05:55:10.456Z,99120.09
2023-03-28T05:57:40.142Z,99115.97
2023-03-28T06:00:10.731Z,99120.16
2023-03-28T06:02:46.818Z,99128.66
2023-03-28T06:05:18.481Z,99132.03
2023-03-28T06:07:46.852Z,99130.59
2023-03-28T06:10:17.314Z,99126.28
2023-03-28T06:12:56.378Z,99136.72
2023-03-28T06:15:24.145Z,99140.63
2023-03-28T06:17:51.929Z,99142.34
2023-03-28T06:20:19.746Z,99150.25
2023-03-28T06:22:47.904Z,99156.44
2023-03-28T06:25:15.694Z,99141.25
2023-03-28T06:27:43.198Z,99154.63
2023-03-28T06:30:11.690Z,99154.97
2023-03-28T06:32:53.362Z,99157.25
2023-03-28T06:35:20.955Z,99150.97
2023-03-28T06:37:48.789Z,99145.59
2023-03-28T06:40:25.270Z,99144.63
2023-03-28T06:42:53.605Z,99152.78
2023-03-28T06:45:50.566Z,99152.56
2023-03-28T06:48:19.683Z,99154.28
2023-03-28T06:51:06.239Z,99150.63
2023-03-28T06:53:37.771Z,99149.06
2023-03-28T06:56:06.716Z,99148.25
2023-03-28T06:58:34.312Z,99159.59
2023-03-28T07:01:08.361Z,99160.97
2023-03-28T07:03:50.714Z,99154.53
2023-03-28T07:06:22.414Z,99144.63
2023-03-28T07:08:50.236Z,99153.50
2023-03-28T07:11:21.613Z,99158.00
2023-03-28T07:13:51.209Z,99160.78
2023-03-28T07:16:21.074Z,99161.66
2023-03-28T07:18:50.137Z,99161.66
2023-03-28T07:21:25.614Z,99170.19
2023-03-28T07:23:56.244Z,99171.69
2023-03-28T07:26:28.667Z,99167.06
2023-03-28T07:28:56.534Z,99176.94
2023-03-28T07:31:25.824Z,99168.09
2023-03-28T07:33:57.789Z,99171.97
2023-03-28T07:36:53.353Z,99179.69
2023-03-28T07:40:40.500Z,99186.25
2023-03-28T07:43:57.067Z,99189.38
2023-03-28T07:47:09.740Z,99180.31
2023-03-28T07:50:48.522Z,99171.59
2023-03-28T07:54:01.892Z,99176.81
2023-03-28T07:57:04.381Z,99182.00
2023-03-28T08:00:00.923Z,99173.59
2023-03-28T08:02:50.535Z,99175.16
2023-03-28T08:05:18.684Z,99180.03
2023-03-28T08:07:47.146Z,99181.22
2023-03-28T08:10:14.736Z,99192.66
2023-03-28T08:12:42.960Z,99185.19
2023-03-28T08:15:11.482Z,99182.09
2023-03-28T08:17:39.202Z,99179.63
2023-03-28T08:20:10.159Z,99180.44
2023-03-28T08:23:02.984Z,99185.75
2023-03-28T08:25:49.245Z,99193.69
2023-03-28T08:28:22.320Z,99193.88
2023-03-28T08:30:50.409Z,99187.28
2023-03-28T08:33:17.866Z,99180.69
2023-03-28T08:35:45.542Z,99165.16
2023-03-28T08:38:18.683Z,99184.91
2023-03-28T08:41:01.037Z,99181.25
2023-03-28T08:43:59.389Z,99177.25
2023-03-28T08:46:30.973Z,99177.00
2023-03-28T08:49:04.474Z,99179.28
2023-03-28T08:51:47.646Z,99174.03
2023-03-28T08:54:47.803Z,99172.81
2023-03-28T08:57:25.508Z,99173.94
2023-03-28T09:00:01.236Z,99166.75
2023-03-28T09:02:30.147Z,99173.47
2023-03-28T09:05:11.948Z,99167.19
2023-03-28T09:07:54.879Z,99168.00
2023-03-28T09:10:47.371Z,99168.66
2023-03-28T09:13:36.216Z,99157.66
2023-03-28T09:16:36.602Z,99173.38
2023-03-28T09:19:44.724Z,99163.09
2023-03-28T09:23:01.015Z,99165.44
2023-03-28T09:25:51.661Z,99158.31
2023-03-28T09:29:03.628Z,99152.09
2023-03-28T09:31:36.039Z,99162.06
2023-03-28T09:34:07.144Z,99163.94
2023-03-28T09:36:48.897Z,99163.97
2023-03-28T09:39:39.542Z,99167.38
2023-03-28T09:42:15.362Z,99152.66
2023-03-28T09:45:02.793Z,99155.19
2023-03-28T09:47:53.533Z,99158.59
2023-03-28T09:50:25.664Z,99161.13
2023-03-28T09:52:58.753Z,99159.13
2023-03-28T09:55:29.257Z,99155.84
2023-03-28T09:58:06.772Z,99151.69
2023-03-28T10:00:53.359Z,99149.50
2023-03-28T10:03:52.748Z,99155.78
2023-03-28T10:06:25.904Z,99155.19
2023-03-28T10:09:08.551Z,99148.66
2023-03-28T10:11:59.386Z,99142.66
2023-03-28T10:14:45.249Z,99147.13
2023-03-28T10:17:47.088Z,99153.38
2023-03-28T10:20:30.760Z,99158.53
2023-03-28T10:23:49.457Z,99165.84
2023-03-28T10:47:37.245Z,99162.03
2023-03-28T10:50:44.855Z,99152.19
2023-03-28T10:53:54.916Z,99143.22
2023-03-28T10:56:55.929Z,99149.19
2023-03-28T11:00:07.105Z,99146.47
2023-03-28T11:02:58.954Z,99151.75
2023-03-28T11:05:49.884Z,99131.06
2023-03-28T11:09:16.916Z,99137.69
2023-03-28T11:14:21.779Z,99144.75
2023-03-28T11:15:40.536Z,99145.31
2023-03-28T11:18:28.053Z,99137.38
2023-03-28T11:21:18.842Z,99132.53
2023-03-28T11:24:02.901Z,99133.88
2023-03-28T11:27:20.517Z,99136.06
2023-03-28T11:30:14.741Z,99128.97
2023-03-28T11:33:41.047Z,99132.41
2023-03-28T11:36:57.482Z,99125.91
2023-03-28T11:39:54.414Z,99123.59
2023-03-28T11:42:43.296Z,99107.03
2023-03-28T11:45:47.666Z,99109.44
2023-03-28T11:48:44.616Z,99129.84
2023-03-28T11:51:25.264Z,99114.63
2023-03-28T11:54:10.824Z,99103.75
2023-03-28T11:56:53.385Z,99104.38
2023-03-28T12:00:34.023Z,99103.59
2023-03-28T12:03:24.498Z,99109.44
2023-03-28T12:06:04.774Z,99091.78
2023-03-28T12:08:57.822Z,99089.66
2023-03-28T12:11:36.824Z,99095.84
2023-03-28T12:14:12.633Z,99104.28
2023-03-28T12:16:51.116Z,99102.63
2023-03-28T12:19:32.026Z,99094.88
2023-03-28T12:22:15.917Z,99085.34
2023-03-28T12:25:04.212Z,99093.28
2023-03-28T12:27:42.970Z,99085.31
2023-03-28T12:30:39.257Z,99086.53
2023-03-28T12:33:20.349Z,99097.06
2023-03-28T12:37:01.946Z,99092.91
2023-03-28T12:40:13.366Z,99091.63
2023-03-28T12:42:48.950Z,99078.56
2023-03-28T12:46:16.634Z,99080.00
2023-03-28T12:54:20.789Z,99080.50
2023-03-28T13:09:54.944Z,99074.63
2023-03-28T13:13:06.538Z,99078.44
2023-03-28T13:15:34.800Z,99067.13
2023-03-28T13:18:17.661Z,99081.63
2023-03-28T13:20:46.231Z,99071.34
2023-03-28T13:23:16.708Z,99072.91
2023-03-28T13:26:06.537Z,99077.91
2023-03-28T13:28:41.472Z,99073.28
2023-03-28T13:31:11.811Z,99076.47
2023-03-28T13:33:48.566Z,99069.34
2023-03-28T13:36:24.052Z,99076.94
2023-03-28T13:39:23.999Z,99074.28
2023-03-28T13:41:52.228Z,99067.75
2023-03-28T13:44:33.963Z,99065.84
2023-03-28T13:47:01.677Z,99069.78
2023-03-28T13:49:47.232Z,99073.78
2023-03-28T13:52:19.361Z,99067.19
2023-03-28T13:54:53.977Z,99067.00
2023-03-28T13:57:26.131Z,99072.91
2023-03-28T14:00:05.276Z,99060.66
2023-03-28T14:02:54.763Z,99063.13
2023-03-28T14:05:27.424Z,99051.59
2023-03-28T14:08:01.550Z,99053.91
2023-03-28T14:10:37.235Z,99059.81
2023-03-28T14:13:11.113Z,99052.78
2023-03-28T14:15:43.306Z,99038.88
2023-03-28T14:18:26.057Z,99059.28
2023-03-28T14:20:55.836Z,99060.66
2023-03-28T14:23:29.868Z,99063.06
2023-03-28T14:26:15.838Z,99059.41
2023-03-28T14:28:45.949Z,99058.97
2023-03-28T14:31:37.124Z,99058.88
2023-03-28T14:34:24.359Z,99059.44
2023-03-28T14:37:06.508Z,99054.22
2023-03-28T14:39:36.678Z,99054.88
2023-03-28T14:42:08.523Z,99067.63
2023-03-28T14:44:40.653Z,99064.00
2023-03-28T14:47:13.508Z,99045.78
2023-03-28T14:49:41.324Z,99063.63
2023-03-28T14:52:16.405Z,99063.56
2023-03-28T14:54:49.415Z,99059.09
2023-03-28T14:57:18.401Z,99058.88
2023-03-28T14:59:48.794Z,99057.84
2023-03-28T15:02:23.370Z,99058.50
2023-03-28T15:04:51.596Z,99068.63
2023-03-28T15:07:26.720Z,99065.84
2023-03-28T15:10:11.289Z,99061.47
2023-03-28T15:12:43.704Z,99079.16
2023-03-28T15:15:28.202Z,99073.06
2023-03-28T15:17:58.663Z,99077.09
2023-03-28T15:20:34.349Z,99069.31
2023-03-28T15:23:05.936Z,99061.53
2023-03-28T15:25:35.765Z,99067.41
2023-03-28T15:28:06.758Z,99063.94
2023-03-28T15:30:36.222Z,99065.59
2023-03-28T15:33:07.079Z,99072.41
2023-03-28T15:35:39.670Z,99067.16
2023-03-28T15:38:15.606Z,99056.72
2023-03-28T15:40:46.617Z,99063.50
2023-03-28T15:43:26.036Z,99082.31
2023-03-28T15:46:01.714Z,99066.47
2023-03-28T15:48:36.353Z,99076.63
2023-03-28T15:51:06.534Z,99084.16
2023-03-28T15:53:37.354Z,99072.06
2023-03-28T15:56:11.390Z,99084.84
2023-03-28T15:58:45.116Z,99077.72
2023-03-28T16:01:57.498Z,99070.03
2023-03-28T16:04:29.122Z,99075.88
2023-03-28T16:07:25.515Z,99070.81
2023-03-28T16:18:05.904Z,99075.22
2023-03-28T16:20:40.947Z,99086.22
2023-03-28T16:23:08.525Z,99084.38
2023-03-28T16:25:36.284Z,99070.44
2023-03-28T16:28:03.963Z,99087.66
2023-03-28T16:30:36.974Z,99083.31
2023-03-28T16:33:06.444Z,99088.31
2023-03-28T16:35:34.200Z,99089.03
2023-03-28T16:38:02.517Z,99092.31
2023-03-28T16:40:30.220Z,99092.22
2023-03-28T16:42:58.622Z,99093.75
2023-03-28T16:45:26.184Z,99083.44
2023-03-28T16:47:54.058Z,99086.69
2023-03-28T16:50:21.640Z,99090.97
2023-03-28T16:52:49.116Z,99099.66
2023-03-28T16:55:18.192Z,99096.06
2023-03-28T16:57:46.532Z,99099.41
2023-03-28T17:00:18.188Z,99101.13
2023-03-28T17:02:47.616Z,99101.13
2023-03-28T17:05:17.150Z,99089.94
2023-03-28T17:07:44.824Z,99091.56
2023-03-28T17:10:12.531Z,99092.44
2023-03-28T17:12:41.484Z,99098.41
2023-03-28T17:15:09.649Z,99082.88
2023-03-28T17:17:44.807Z,99098.31
2023-03-28T17:20:12.907Z,99100.00
2023-03-28T17:22:42.566Z,99094.06
2023-03-28T17:25:10.194Z,99103.53
2023-03-28T17:27:37.766Z,99104.31
2023-03-28T17:30:06.298Z,99099.97
2023-03-28T17:32:34.765Z,99102.56
2023-03-28T17:35:02.418Z,99104.31
2023-03-28T17:37:30.425Z,99114.59
2023-03-28T17:39:59.162Z,99107.66
2023-03-28T17:42:29.631Z,99104.97
2023-03-28T17:44:58.941Z,99105.91
2023-03-28T17:47:26.633Z,99106.69
2023-03-28T17:49:56.208Z,99094.69
2023-03-28T17:52:24.735Z,99095.50
2023-03-28T17:54:52.745Z,99085.97
2023-03-28T17:57:21.516Z,99092.06
2023-03-28T17:59:52.156Z,99098.97
2023-03-28T18:02:20.344Z,99097.09
2023-03-28T18:04:59.117Z,99097.00
2023-03-28T18:07:31.204Z,99094.53
2023-03-28T18:10:03.419Z,99100.38
2023-03-28T18:12:31.321Z,99103.97
2023-03-28T18:15:00.949Z,99104.88
2023-03-28T18:17:29.748Z,99111.72
2023-03-28T18:19:59.001Z,99109.22
2023-03-28T18:22:27.285Z,99112.56
2023-03-28T18:24:55.109Z,99107.47
2023-03-28T18:27:22.760Z,99104.00
2023-03-28T18:29:50.521Z,99110.09
2023-03-28T18:32:18.371Z,99109.22
2023-03-28T18:34:46.872Z,99104.06
2023-03-28T18:37:14.576Z,99108.34
2023-03-28T18:39:42.539Z,99107.38
2023-03-28T18:42:10.754Z,99105.50
2023-03-28T18:44:39.061Z,99104.63
2023-03-28T18:47:06.709Z,99106.16
2023-03-28T18:49:34.781Z,99102.66
2023-03-28T18:52:04.962Z,99115.50
2023-03-28T18:54:35.245Z,99107.78
2023-03-28T18:57:03.494Z,99111.16
2023-03-28T19:00:17.340Z,99109.66
2023-03-28T19:07:22.653Z,99106.13
2023-03-28T19:10:13.505Z,99096.44
2023-03-28T19:12:41.301Z,99099.69
2023-03-28T19:15:11.120Z,99106.47
2023-03-28T19:17:40.179Z,99099.63
2023-03-28T19:20:12.809Z,99096.88
2023-03-28T19:22:41.418Z,99099.44
2023-03-28T19:25:09.535Z,99098.38
2023-03-28T19:27:37.791Z,99105.28
2023-03-28T19:30:06.605Z,99094.09
2023-03-28T19:32:34.290Z,99093.97
2023-03-28T19:35:01.925Z,99100.53
2023-03-28T19:37:30.804Z,99104.69
2023-03-28T19:40:01.411Z,99104.63
2023-03-28T19:42:30.207Z,99111.19
2023-03-28T19:44:59.833Z,99102.75
2023-03-28T19:47:27.341Z,99112.97
2023-03-28T19:49:54.959Z,99099.19
2023-03-28T19:52:22.474Z,99113.97
2023-03-28T19:54:50.778Z,99104.44
2023-03-28T19:57:18.322Z,99106.41
2023-03-28T19:59:45.883Z,99110.75
2023-03-28T20:02:13.471Z,99105.59
2023-03-28T20:04:41.106Z,99100.63
2023-03-28T20:07:08.601Z,99092.94
2023-03-28T20:09:36.098Z,99099.06
2023-03-28T20:12:03.893Z,99094.72
2023-03-28T20:14:31.705Z,99089.53
2023-03-28T20:16:59.297Z,99093.97
2023-03-28T20:19:26.839Z,99091.53
2023-03-28T20:21:54.367Z,99091.47
2023-03-28T20:24:21.822Z,99093.97
2023-03-28T20:26:49.470Z,99098.06
2023-03-28T20:29:17.144Z,99097.25
2023-03-28T20:31:44.639Z,99097.97
2023-03-28T20:34:12.268Z,99100.47
2023-03-28T20:36:41.523Z,99105.59
2023-03-28T20:39:12.046Z,99096.91
2023-03-28T20:41:40.203Z,99086.53
2023-03-28T20:44:09.060Z,99094.22
2023-03-28T20:46:39.833Z,99088.09
2023-03-28T20:49:07.972Z,99096.66
2023-03-28T20:51:39.468Z,99071.69
2023-03-28T20:54:07.145Z,99092.38
2023-03-28T20:56:36.854Z,99080.22
2023-03-28T20:59:06.019Z,99088.13
2023-03-28T21:01:33.820Z,99087.38
2023-03-28T21:04:02.372Z,99077.91
2023-03-28T21:06:36.111Z,99080.63
2023-03-28T21:09:07.146Z,99078.19
2023-03-28T21:11:37.191Z,99072.34
2023-03-28T21:14:07.244Z,99079.28
2023-03-28T21:16:37.549Z,99074.91
2023-03-28T21:19:05.923Z,99067.25
2023-03-28T21:21:34.389Z,99056.63
2023-03-28T21:24:05.022Z,99060.75
2023-03-28T21:26:32.681Z,99064.06
2023-03-28T21:29:00.198Z,99066.41
2023-03-28T21:31:29.613Z,99061.13
2023-03-28T21:33:59.250Z,99061.06
2023-03-28T21:36:28.024Z,99058.41
2023-03-28T21:38:56.984Z,99056.72
2023-03-28T21:41:25.126Z,99056.72
2023-03-28T21:43:54.670Z,99048.13
2023-03-28T21:46:22.938Z,99045.63
2023-03-28T21:48:50.567Z,99052.41
2023-03-28T21:51:18.269Z,99051.59
2023-03-28T21:53:46.050Z,99041.50
2023-03-28T21:56:14.883Z,99043.31
2023-03-28T21:58:42.818Z,99046.78
2023-03-28T22:01:13.894Z,99049.28
2023-03-28T22:03:41.847Z,99044.81
2023-03-28T22:06:10.307Z,99034.34
2023-03-28T22:08:38.626Z,99030.63
2023-03-28T22:11:17.937Z,99045.44
2023-03-28T22:13:47.424Z,99039.16
2023-03-28T22:16:15.547Z,99035.66
2023-03-28T22:18:49.928Z,99032.31
2023-03-28T22:21:17.993Z,99031.44
2023-03-28T22:23:47.746Z,99028.91
2023-03-28T22:26:16.079Z,99008.22
2023-03-28T22:28:44.205Z,99014.34
2023-03-28T22:31:12.503Z,99001.38
2023-03-28T22:33:40.064Z,99003.94
2023-03-28T22:36:08.162Z,99008.13
2023-03-28T22:38:36.737Z,99011.66
2023-03-28T22:41:04.655Z,99008.31
2023-03-28T22:43:34.043Z,99005.34
2023-03-28T22:46:01.577Z,99012.13
2023-03-28T22:48:32.126Z,99009.47
2023-03-28T22:51:01.690Z,99008.59
2023-03-28T22:53:29.597Z,99002.38
2023-03-28T22:55:57.800Z,99001.47
2023-03-28T22:58:28.619Z,98992.03
2023-03-28T23:00:56.128Z,98990.44
2023-03-28T23:03:23.955Z,98997.28
2023-03-28T23:05:51.851Z,99000.66
2023-03-28T23:08:19.506Z,98997.28
2023-03-28T23:10:47.528Z,98995.66
2023-03-28T23:13:14.986Z,98996.56
2023-03-28T23:15:42.575Z,98988.03
2023-03-28T23:18:10.087Z,98995.88
2023-03-28T23:20:38.330Z,98989.03
2023-03-28T23:23:06.856Z,98969.56
2023-03-28T23:25:34.698Z,98985.81
2023-03-28T23:28:02.130Z,98982.53
2023-03-28T23:30:29.597Z,98985.31
2023-03-28T23:32:57.047Z,98986.34
2023-03-28T23:35:24.562Z,98982.03
2023-03-28T23:37:53.315Z,98976.94
2023-03-28T23:40:21.144Z,98987.38
2023-03-28T23:42:48.822Z,98974.50
2023-03-28T23:45:16.697Z,98974.84
2023-03-28T23:47:44.545Z,98976.69
2023-03-28T23:50:12.971Z,98977.53
2023-03-28T23:52:40.489Z,98973.66
2023-03-28T23:55:10.749Z,98965.16
2023-03-28T23:57:38.285Z,98960.19
